Time;durP1;ratioP1;P1;durP2;ratioP2;P2;SDS_P1;SDS_P2;PMS_P1;PMS_P2;Temp;Humidity;BMP_temperature;BMP_pressure;BME280_temperature;BME280_humidity;BME280_pressure;Samples;Min_cycle;Max_cycle;Signal;HPM_P1;HPM_P2
2022/01/01 00:01:33;;;;;;;52.50;10.93;;;10.80;99.90;;;;;;5030095;28;20781;-70
2022/01/01 00:03:59;;;;;;;48.22;11.20;;;10.80;99.90;;;;;;5030395;28;20071;-72
2022/01/01 00:06:25;;;;;;;50.55;11.50;;;10.80;99.90;;;;;;5030181;28;20037;-71
2022/01/01 00:08:50;;;;;;;38.33;13.23;;;10.80;99.90;;;;;;5030281;28;20025;-71
2022/01/01 00:11:16;;;;;;;38.75;12.38;;;10.80;99.90;;;;;;5029817;28;20026;-71
2022/01/01 00:13:42;;;;;;;58.83;20.42;;;10.80;99.90;;;;;;5022774;28;20052;-71
2022/01/01 00:16:09;;;;;;;47.75;14.40;;;10.80;99.90;;;;;;5032445;28;20159;-71
2022/01/01 00:18:38;;;;;;;41.38;11.63;;;10.80;99.90;;;;;;5036074;28;20021;-71
2022/01/01 00:21:05;;;;;;;39.72;11.65;;;10.80;99.90;;;;;;5024339;28;20026;-71
2022/01/01 00:23:32;;;;;;;42.85;9.77;;;10.80;99.90;;;;;;5031726;28;20431;-72
2022/01/01 00:25:57;;;;;;;41.25;11.65;;;10.80;99.90;;;;;;5026898;28;20045;-72
2022/01/01 00:28:23;;;;;;;34.92;10.43;;;10.80;99.90;;;;;;5031044;28;20056;-73
2022/01/01 00:30:49;;;;;;;40.78;13.05;;;10.80;99.90;;;;;;5025796;28;20367;-74
2022/01/01 00:33:14;;;;;;;42.13;11.23;;;10.80;99.90;;;;;;5032100;28;20033;-73
2022/01/01 00:35:40;;;;;;;46.35;12.88;;;10.80;99.90;;;;;;5025878;28;20030;-72
2022/01/01 00:38:06;;;;;;;36.20;12.82;;;10.80;99.90;;;;;;5018225;28;20021;-72
2022/01/01 00:40:33;;;;;;;55.22;19.77;;;10.70;99.90;;;;;;5026478;28;20038;-72
2022/01/01 00:43:01;;;;;;;44.13;16.10;;;10.70;99.90;;;;;;5028365;28;20026;-72
2022/01/01 00:45:27;;;;;;;45.67;18.65;;;10.70;99.90;;;;;;5033066;28;20100;-72
2022/01/01 00:47:52;;;;;;;59.70;19.83;;;10.70;99.90;;;;;;5040952;28;20100;-72
2022/01/01 00:50:18;;;;;;;55.53;18.70;;;10.60;99.90;;;;;;5040946;28;20474;-71
2022/01/01 00:52:44;;;;;;;51.97;19.85;;;10.60;99.90;;;;;;5031996;28;20033;-72
2022/01/01 00:55:11;;;;;;;52.83;21.55;;;10.60;99.90;;;;;;5034398;28;20033;-71
2022/01/01 00:57:37;;;;;;;56.13;22.38;;;10.60;99.90;;;;;;5034590;28;20368;-72
2022/01/01 01:00:04;;;;;;;58.42;22.42;;;10.70;99.90;;;;;;5032866;28;20036;-71
2022/01/01 01:02:31;;;;;;;63.42;24.75;;;10.70;99.90;;;;;;5034790;28;20033;-71
2022/01/01 01:04:57;;;;;;;55.80;21.90;;;10.70;99.90;;;;;;5036011;28;20013;-72
2022/01/01 01:07:23;;;;;;;59.72;22.35;;;10.70;99.90;;;;;;5035503;28;20056;-71
2022/01/01 01:09:49;;;;;;;67.78;21.63;;;10.70;99.90;;;;;;5033454;28;20047;-72
2022/01/01 01:12:20;;;;;;;58.58;19.60;;;10.80;99.90;;;;;;5039295;28;20033;-72
2022/01/01 01:14:46;;;;;;;65.50;20.63;;;10.80;99.90;;;;;;5025140;28;20203;-72
2022/01/01 01:17:12;;;;;;;57.30;18.45;;;10.80;99.90;;;;;;5022494;28;20040;-72
2022/01/01 01:19:38;;;;;;;55.58;20.05;;;10.90;99.90;;;;;;5031173;28;20462;-72
2022/01/01 01:22:04;;;;;;;57.70;21.20;;;11.00;99.90;;;;;;5035529;28;20467;-73
2022/01/01 01:24:30;;;;;;;48.58;16.88;;;11.00;99.90;;;;;;5020707;28;20033;-72
2022/01/01 01:27:00;;;;;;;55.50;18.80;;;11.00;99.90;;;;;;5016493;28;20049;-72
2022/01/01 01:29:26;;;;;;;48.13;16.13;;;11.10;99.90;;;;;;5024927;28;20025;-72
2022/01/01 01:31:52;;;;;;;42.38;14.07;;;11.10;99.90;;;;;;5036012;28;20386;-72
2022/01/01 01:34:17;;;;;;;42.67;12.25;;;11.20;99.90;;;;;;5018865;28;20041;-71
2022/01/01 01:36:43;;;;;;;48.83;12.18;;;11.30;99.90;;;;;;5015379;28;20423;-72
2022/01/01 01:39:09;;;;;;;31.90;9.82;;;11.30;99.90;;;;;;5015301;28;20038;-72
2022/01/01 01:41:34;;;;;;;37.70;10.40;;;11.40;99.90;;;;;;5014302;28;20470;-72
2022/01/01 01:44:02;;;;;;;41.67;10.73;;;11.40;99.90;;;;;;5015260;28;20068;-72
2022/01/01 01:46:28;;;;;;;42.00;11.50;;;11.50;99.90;;;;;;5035118;28;20076;-73
2022/01/01 01:48:54;;;;;;;45.28;12.07;;;11.40;99.90;;;;;;5035650;28;20065;-75
2022/01/01 01:51:20;;;;;;;37.97;11.90;;;11.40;99.90;;;;;;5034929;28;20032;-73
2022/01/01 01:53:47;;;;;;;43.15;13.57;;;11.40;99.90;;;;;;5031878;28;20025;-72
2022/01/01 01:56:12;;;;;;;47.53;11.48;;;11.40;99.90;;;;;;5035343;28;20509;-72
2022/01/01 01:58:38;;;;;;;46.15;11.73;;;11.40;99.90;;;;;;5033763;28;20025;-77
2022/01/01 02:01:24;;;;;;;49.92;10.38;;;11.40;99.90;;;;;;5035101;28;20167;-74
2022/01/01 02:03:50;;;;;;;48.10;10.15;;;11.40;99.90;;;;;;5034734;28;20055;-75
2022/01/01 02:06:17;;;;;;;34.65;9.32;;;11.40;99.90;;;;;;5035029;28;20041;-75
2022/01/01 02:08:43;;;;;;;38.90;10.07;;;11.40;99.90;;;;;;5034754;28;20022;-75
2022/01/01 02:11:09;;;;;;;48.45;9.82;;;11.40;99.90;;;;;;5034866;28;20025;-73
2022/01/01 02:18:50;;;;;;;46.53;13.15;;;11.40;99.90;;;;;;5034732;28;20367;-72
2022/01/01 02:21:16;;;;;;;41.85;14.20;;;11.40;99.90;;;;;;5034820;28;20022;-75
2022/01/01 02:23:44;;;;;;;32.42;10.73;;;11.50;99.90;;;;;;5034843;28;20108;-76
2022/01/01 02:26:12;;;;;;;31.27;9.73;;;11.50;99.90;;;;;;5034397;28;20044;-75
2022/01/01 02:28:45;;;;;;;31.42;9.15;;;11.50;99.90;;;;;;5034591;28;20071;-74
2022/01/01 02:31:11;;;;;;;29.15;8.73;;;11.50;99.90;;;;;;5034384;28;20025;-72
2022/01/01 02:33:38;;;;;;;30.60;10.00;;;11.50;99.90;;;;;;5033118;28;20044;-73
2022/01/01 02:36:04;;;;;;;30.55;8.73;;;11.50;99.90;;;;;;5034194;28;20072;-74
2022/01/01 02:38:32;;;;;;;32.35;9.35;;;11.50;99.90;;;;;;5032839;28;20038;-71
2022/01/01 02:40:58;;;;;;;33.30;8.27;;;11.50;99.90;;;;;;5034200;28;20068;-76
2022/01/01 02:43:25;;;;;;;33.40;10.68;;;11.40;99.90;;;;;;5033759;28;20072;-74
2022/01/01 02:45:51;;;;;;;32.97;9.10;;;11.40;99.90;;;;;;5034167;28;20491;-73
2022/01/01 02:48:17;;;;;;;26.90;10.07;;;11.40;99.90;;;;;;5033868;28;20494;-74
2022/01/01 02:50:43;;;;;;;26.90;9.15;;;11.40;99.90;;;;;;5032981;28;20064;-73
2022/01/01 02:53:16;;;;;;;34.33;10.85;;;11.40;99.90;;;;;;5032683;28;20052;-73
2022/01/01 02:55:46;;;;;;;32.42;9.77;;;11.40;99.90;;;;;;5033035;28;20391;-74
2022/01/01 02:58:12;;;;;;;38.38;10.95;;;11.30;99.90;;;;;;5033148;28;20026;-75
2022/01/01 03:00:39;;;;;;;31.95;10.45;;;11.30;99.90;;;;;;5032162;28;20086;-74
2022/01/01 03:03:05;;;;;;;37.72;14.48;;;11.40;99.90;;;;;;5034033;28;20025;-73
2022/01/01 03:05:31;;;;;;;44.45;15.82;;;11.30;99.90;;;;;;5033764;28;20104;-75
2022/01/01 03:07:57;;;;;;;39.47;13.15;;;11.30;99.90;;;;;;5033049;28;20033;-76
2022/01/01 03:10:23;;;;;;;40.75;13.43;;;11.40;99.90;;;;;;5033589;28;20029;-72
2022/01/01 03:12:49;;;;;;;41.40;11.95;;;11.40;99.90;;;;;;5033531;28;20395;-73
2022/01/01 03:15:14;;;;;;;41.63;10.82;;;11.40;99.90;;;;;;5034171;28;20478;-74
2022/01/01 03:17:40;;;;;;;41.95;12.57;;;11.40;99.90;;;;;;5031329;28;20025;-72
2022/01/01 03:20:06;;;;;;;33.70;9.32;;;11.40;99.90;;;;;;5019176;28;20033;-73
2022/01/01 03:22:32;;;;;;;43.47;11.13;;;11.40;99.90;;;;;;5033256;28;20038;-74
2022/01/01 03:24:58;;;;;;;36.72;11.65;;;11.50;99.90;;;;;;5033579;28;20032;-74
2022/01/01 03:27:23;;;;;;;42.90;12.13;;;11.50;99.90;;;;;;5033457;28;20120;-76
2022/01/01 03:29:49;;;;;;;42.60;11.85;;;11.50;99.90;;;;;;5032589;28;20025;-71
2022/01/01 03:32:15;;;;;;;40.70;11.43;;;11.50;99.90;;;;;;5033498;28;20029;-75
2022/01/01 03:34:42;;;;;;;38.60;11.70;;;11.60;99.90;;;;;;5029628;28;20030;-75
2022/01/01 03:37:07;;;;;;;36.72;10.85;;;11.60;99.90;;;;;;5021163;28;20022;-76
2022/01/01 03:39:33;;;;;;;43.47;11.40;;;11.60;99.90;;;;;;5031373;28;20404;-72
2022/01/01 03:41:59;;;;;;;36.85;11.27;;;11.60;99.90;;;;;;5033219;28;20021;-72
2022/01/01 03:44:24;;;;;;;36.33;10.85;;;11.60;99.90;;;;;;5032880;28;20031;-72
2022/01/01 03:46:51;;;;;;;36.08;11.63;;;11.60;99.90;;;;;;5015352;28;20042;-72
2022/01/01 03:49:17;;;;;;;39.53;11.23;;;11.60;99.90;;;;;;5012129;28;20052;-72
2022/01/01 03:51:45;;;;;;;41.58;13.15;;;11.70;99.90;;;;;;5014662;28;20109;-73
2022/01/01 03:54:12;;;;;;;39.53;13.02;;;11.80;99.90;;;;;;5027921;28;20021;-72
2022/01/01 03:56:38;;;;;;;41.38;13.32;;;11.80;99.90;;;;;;5032891;28;20451;-72
2022/01/01 03:59:04;;;;;;;43.20;12.90;;;11.90;99.90;;;;;;5032625;28;20029;-73
2022/01/01 04:01:30;;;;;;;48.67;14.20;;;12.00;99.90;;;;;;5030984;28;20030;-71
2022/01/01 04:03:55;;;;;;;36.75;12.90;;;12.10;99.90;;;;;;5023595;28;20036;-72
2022/01/01 04:06:21;;;;;;;37.97;13.40;;;12.10;99.90;;;;;;5032211;28;20467;-72
2022/01/01 04:08:46;;;;;;;44.75;13.63;;;12.20;99.90;;;;;;5032610;28;20025;-72
2022/01/01 04:11:13;;;;;;;44.22;13.27;;;12.20;99.90;;;;;;5032532;28;20030;-72
2022/01/01 04:13:38;;;;;;;42.50;12.75;;;12.30;99.90;;;;;;5032409;28;20107;-72
2022/01/01 04:16:04;;;;;;;38.67;12.85;;;12.30;99.90;;;;;;5032566;28;20383;-72
2022/01/01 04:18:38;;;;;;;49.42;13.35;;;12.40;99.90;;;;;;5032827;28;20131;-72
2022/01/01 04:21:11;;;;;;;38.15;14.32;;;12.40;99.90;;;;;;5030109;28;20017;-70
2022/01/01 04:23:38;;;;;;;40.47;14.00;;;12.50;99.90;;;;;;5032427;28;20109;-73
2022/01/01 04:26:05;;;;;;;38.33;14.20;;;12.50;99.90;;;;;;5032218;28;20042;-72
2022/01/01 04:28:31;;;;;;;43.63;13.23;;;12.50;99.90;;;;;;5030982;28;20039;-72
2022/01/01 04:30:56;;;;;;;39.50;13.23;;;12.50;99.90;;;;;;5032162;28;20026;-72
2022/01/01 04:33:22;;;;;;;32.92;13.52;;;12.50;99.90;;;;;;5032385;28;20030;-72
2022/01/01 04:35:47;;;;;;;38.72;13.07;;;12.50;99.90;;;;;;5030769;28;20034;-71
2022/01/01 04:38:34;;;;;;;33.33;12.68;;;12.60;99.90;;;;;;5012331;28;20038;-72
2022/01/01 04:40:59;;;;;;;32.33;12.95;;;12.60;99.90;;;;;;5012314;28;20026;-72
2022/01/01 04:43:24;;;;;;;35.47;11.52;;;12.70;99.90;;;;;;5012683;28;20096;-72
2022/01/01 04:45:50;;;;;;;31.15;11.88;;;12.70;99.90;;;;;;5012536;28;20053;-72
2022/01/01 04:48:15;;;;;;;34.10;10.65;;;12.60;99.90;;;;;;5012097;28;20030;-72
2022/01/01 04:50:41;;;;;;;35.25;11.48;;;12.70;99.90;;;;;;5012350;28;20029;-71
2022/01/01 04:53:07;;;;;;;27.48;9.73;;;12.60;99.90;;;;;;5013156;28;20063;-72
2022/01/01 04:55:33;;;;;;;30.75;10.57;;;12.60;99.90;;;;;;5012418;28;20101;-72
2022/01/01 04:57:59;;;;;;;29.15;10.10;;;12.60;99.90;;;;;;5021101;28;20017;-71
2022/01/01 05:00:24;;;;;;;32.13;10.82;;;12.60;99.90;;;;;;5032060;28;20068;-71
2022/01/01 05:02:50;;;;;;;37.25;12.05;;;12.60;99.90;;;;;;5031849;28;20033;-72
2022/01/01 05:05:15;;;;;;;26.55;10.18;;;12.50;99.90;;;;;;5032058;28;20799;-71
2022/01/01 05:07:43;;;;;;;27.20;10.90;;;12.50;99.90;;;;;;5031874;28;20041;-72
2022/01/01 05:10:09;;;;;;;36.08;10.40;;;12.50;99.90;;;;;;5028429;28;20026;-72
2022/01/01 05:12:35;;;;;;;31.63;9.70;;;12.50;99.90;;;;;;5012367;28;20102;-72
2022/01/01 05:15:00;;;;;;;35.10;9.90;;;12.50;99.90;;;;;;5012452;28;20050;-72
2022/01/01 05:17:26;;;;;;;27.58;9.88;;;12.40;99.90;;;;;;5012196;28;20069;-71
2022/01/01 05:19:52;;;;;;;30.88;8.55;;;12.40;99.90;;;;;;5025305;28;20038;-72
2022/01/01 05:22:18;;;;;;;27.55;9.57;;;12.40;99.90;;;;;;5012559;28;20030;-72
2022/01/01 05:24:44;;;;;;;33.00;10.85;;;12.40;99.90;;;;;;5012253;28;20475;-71
2022/01/01 05:27:09;;;;;;;29.42;10.07;;;12.40;99.90;;;;;;5012721;28;20073;-71
2022/01/01 05:29:35;;;;;;;28.15;9.55;;;12.40;99.90;;;;;;5012283;28;20030;-71
2022/01/01 05:32:00;;;;;;;31.65;10.25;;;12.30;99.90;;;;;;5013536;28;20041;-72
2022/01/01 05:34:26;;;;;;;30.60;8.63;;;12.30;99.90;;;;;;5015933;28;20026;-71
2022/01/01 05:36:52;;;;;;;29.50;8.95;;;12.30;99.90;;;;;;5015694;28;20065;-71
2022/01/01 05:39:18;;;;;;;26.70;8.57;;;12.30;99.90;;;;;;5014496;28;20033;-71
2022/01/01 05:41:43;;;;;;;28.92;8.68;;;12.40;99.90;;;;;;5015657;28;20132;-72
2022/01/01 05:44:09;;;;;;;26.38;9.00;;;12.30;99.90;;;;;;5016531;28;20060;-72
2022/01/01 05:46:35;;;;;;;24.15;8.00;;;12.40;99.90;;;;;;5014980;28;20049;-72
2022/01/01 05:49:00;;;;;;;28.77;8.43;;;12.40;99.90;;;;;;5015712;28;20072;-71
2022/01/01 05:51:26;;;;;;;20.73;7.10;;;12.40;99.90;;;;;;5015710;28;20033;-72
2022/01/01 05:53:51;;;;;;;23.67;7.93;;;12.50;99.90;;;;;;5046115;28;20032;-72
2022/01/01 05:56:17;;;;;;;24.92;7.85;;;12.50;99.90;;;;;;5034064;28;20096;-72
2022/01/01 05:58:43;;;;;;;25.90;8.75;;;12.60;99.90;;;;;;5035264;28;20033;-71
2022/01/01 06:01:08;;;;;;;22.50;7.60;;;12.60;99.90;;;;;;5031216;28;20026;-72
2022/01/01 06:03:34;;;;;;;23.85;9.00;;;12.60;99.90;;;;;;5015787;28;20041;-72
2022/01/01 06:05:59;;;;;;;24.70;7.78;;;12.60;99.90;;;;;;5015487;28;20419;-72
2022/01/01 06:08:28;;;;;;;28.27;12.02;;;12.60;99.90;;;;;;5015335;28;20029;-71
2022/01/01 06:10:55;;;;;;;25.67;9.05;;;12.60;99.90;;;;;;5015517;28;20120;-72
2022/01/01 06:13:21;;;;;;;28.40;8.48;;;12.60;99.90;;;;;;5015289;28;20427;-72
2022/01/01 06:15:46;;;;;;;27.95;9.10;;;12.50;99.90;;;;;;5015188;28;20476;-72
2022/01/01 06:18:12;;;;;;;28.30;10.45;;;12.50;99.90;;;;;;5015633;28;20072;-72
2022/01/01 06:20:38;;;;;;;27.60;10.65;;;12.60;99.90;;;;;;5015223;28;20069;-72
2022/01/01 06:23:05;;;;;;;30.15;10.55;;;12.50;99.90;;;;;;5015096;28;20383;-73
2022/01/01 06:25:31;;;;;;;29.33;11.32;;;12.50;99.90;;;;;;5015130;28;20072;-72
2022/01/01 06:27:56;;;;;;;33.20;11.75;;;12.50;99.90;;;;;;5015089;28;20117;-72
2022/01/01 06:30:22;;;;;;;27.35;11.43;;;12.50;99.90;;;;;;5015036;28;20467;-73
2022/01/01 06:32:50;;;;;;;33.10;11.98;;;12.50;99.90;;;;;;5014949;28;20153;-71
2022/01/01 06:35:16;;;;;;;37.72;11.93;;;12.60;99.90;;;;;;5015493;28;20112;-71
2022/01/01 06:37:42;;;;;;;31.20;11.75;;;12.50;99.90;;;;;;5015002;28;20149;-71
2022/01/01 06:40:08;;;;;;;28.75;11.20;;;12.60;99.90;;;;;;5014783;28;20030;-71
2022/01/01 06:42:34;;;;;;;28.25;10.32;;;12.50;99.90;;;;;;5029428;28;20069;-72
2022/01/01 06:44:59;;;;;;;33.03;12.10;;;12.60;99.90;;;;;;5014075;28;20087;-71
2022/01/01 06:47:25;;;;;;;29.30;10.75;;;12.60;99.90;;;;;;5014263;28;20481;-71
2022/01/01 06:49:51;;;;;;;27.95;9.85;;;12.60;99.90;;;;;;5014740;28;20523;-70
2022/01/01 06:52:16;;;;;;;33.03;10.70;;;12.50;99.90;;;;;;5014574;28;20018;-70
2022/01/01 06:54:42;;;;;;;25.45;9.95;;;12.60;99.90;;;;;;5014377;28;20080;-71
2022/01/01 06:57:07;;;;;;;23.17;10.07;;;12.60;99.90;;;;;;5014724;28;20037;-71
2022/01/01 06:59:33;;;;;;;26.55;10.18;;;12.60;99.90;;;;;;5033844;28;20040;-71
2022/01/01 07:01:58;;;;;;;25.55;10.32;;;12.60;99.90;;;;;;5033809;28;20505;-70
2022/01/01 07:04:24;;;;;;;26.33;10.43;;;12.60;99.90;;;;;;5034073;28;20083;-72
2022/01/01 07:06:50;;;;;;;31.13;9.90;;;12.60;99.90;;;;;;5032571;28;20503;-70
2022/01/01 07:09:15;;;;;;;26.17;10.13;;;12.70;99.90;;;;;;5027978;28;20085;-71
2022/01/01 07:11:42;;;;;;;24.63;9.35;;;12.70;99.90;;;;;;5014148;28;20022;-71
2022/01/01 07:14:09;;;;;;;27.88;10.90;;;12.80;99.90;;;;;;5013652;28;20077;-71
2022/01/01 07:16:34;;;;;;;28.05;10.10;;;12.70;99.90;;;;;;5013813;28;20030;-71
2022/01/01 07:19:00;;;;;;;27.13;9.82;;;12.80;99.90;;;;;;5024360;28;20436;-71
2022/01/01 07:21:26;;;;;;;25.23;10.05;;;12.80;99.90;;;;;;5032219;28;20029;-71
2022/01/01 07:23:51;;;;;;;23.98;9.73;;;12.80;99.90;;;;;;5033957;28;20374;-71
2022/01/01 07:26:17;;;;;;;26.13;9.48;;;12.80;99.90;;;;;;5033194;28;20040;-71
2022/01/01 07:28:44;;;;;;;28.23;9.93;;;12.90;99.90;;;;;;5033608;28;20029;-71
2022/01/01 07:31:10;;;;;;;28.23;9.95;;;12.90;99.90;;;;;;5033572;28;20029;-71
2022/01/01 07:33:35;;;;;;;24.98;9.68;;;12.90;99.90;;;;;;5033662;28;20021;-71
2022/01/01 07:36:01;;;;;;;21.52;8.07;;;12.90;99.90;;;;;;5033418;28;20482;-71
2022/01/01 07:38:26;;;;;;;22.30;8.45;;;12.90;99.90;;;;;;5033561;28;20071;-71
2022/01/01 07:40:53;;;;;;;22.58;8.65;;;12.90;99.90;;;;;;5033249;28;20031;-71
2022/01/01 07:43:20;;;;;;;18.73;8.18;;;12.90;99.90;;;;;;5032356;28;20061;-71
2022/01/01 07:45:45;;;;;;;26.90;8.73;;;12.90;99.90;;;;;;5033147;28;20026;-71
2022/01/01 07:48:11;;;;;;;21.83;9.00;;;13.00;99.90;;;;;;5033051;28;20090;-71
2022/01/01 07:50:37;;;;;;;20.23;7.55;;;12.90;99.90;;;;;;5033240;28;20029;-71
2022/01/01 07:53:05;;;;;;;24.65;8.90;;;13.00;99.90;;;;;;5032132;28;20459;-71
2022/01/01 07:55:31;;;;;;;21.10;8.35;;;12.90;99.90;;;;;;5032627;28;20412;-71
2022/01/01 07:57:57;;;;;;;25.00;8.70;;;13.00;99.90;;;;;;5032591;28;20029;-71
2022/01/01 08:00:22;;;;;;;17.55;6.55;;;13.00;99.90;;;;;;5027339;28;20021;-71
2022/01/01 08:02:48;;;;;;;21.15;7.65;;;13.10;99.90;;;;;;5024166;28;20033;-71
2022/01/01 08:05:16;;;;;;;21.25;7.45;;;13.10;99.90;;;;;;5032884;28;20061;-71
2022/01/01 08:07:43;;;;;;;21.38;7.70;;;13.10;99.90;;;;;;5030931;28;20135;-71
2022/01/01 08:10:09;;;;;;;18.58;6.55;;;13.10;99.90;;;;;;5032591;28;20541;-71
2022/01/01 08:12:35;;;;;;;19.40;7.25;;;13.20;99.90;;;;;;5031650;28;20026;-71
2022/01/01 08:15:02;;;;;;;21.83;6.28;;;13.20;99.90;;;;;;5032538;28;20036;-71
2022/01/01 08:17:30;;;;;;;18.77;6.93;;;13.20;99.90;;;;;;5026363;28;20124;-71
2022/01/01 08:19:57;;;;;;;21.25;6.70;;;13.20;99.90;;;;;;5032534;28;20092;-71
2022/01/01 08:22:23;;;;;;;16.30;6.63;;;13.20;99.90;;;;;;5032575;28;20053;-72
2022/01/01 08:24:49;;;;;;;16.58;5.97;;;13.20;99.90;;;;;;5032755;28;20061;-72
2022/01/01 08:27:15;;;;;;;15.10;4.90;;;13.20;99.90;;;;;;5031128;28;20037;-71
2022/01/01 08:29:43;;;;;;;19.83;6.10;;;13.20;99.90;;;;;;5027306;28;20021;-72
2022/01/01 08:32:09;;;;;;;17.23;6.20;;;13.20;99.90;;;;;;5030991;28;20426;-71
2022/01/01 08:34:35;;;;;;;13.85;4.50;;;13.30;99.90;;;;;;5025231;28;20041;-71
2022/01/01 08:37:01;;;;;;;23.25;7.68;;;13.20;99.90;;;;;;5039249;28;20048;-72
2022/01/01 08:39:26;;;;;;;15.82;6.18;;;13.20;99.90;;;;;;5030995;28;20463;-72
2022/01/01 08:41:52;;;;;;;19.35;8.65;;;13.30;99.90;;;;;;5031996;28;20052;-71
2022/01/01 08:44:18;;;;;;;14.88;5.88;;;13.20;99.90;;;;;;5032008;28;20034;-71
2022/01/01 08:46:43;;;;;;;19.17;6.50;;;13.30;99.90;;;;;;5032381;28;20045;-71
2022/01/01 08:49:10;;;;;;;23.50;8.45;;;13.30;99.90;;;;;;5031993;28;20514;-71
2022/01/01 08:51:37;;;;;;;16.08;6.25;;;13.30;99.90;;;;;;5030974;28;20387;-72
2022/01/01 08:54:03;;;;;;;16.33;6.18;;;13.30;99.90;;;;;;5032249;28;20036;-71
2022/01/01 08:56:30;;;;;;;18.33;6.53;;;13.30;99.90;;;;;;5042142;28;20029;-71
2022/01/01 08:58:55;;;;;;;14.75;5.50;;;13.30;99.90;;;;;;5032244;28;20026;-71
2022/01/01 09:01:21;;;;;;;17.05;6.93;;;13.30;99.90;;;;;;5029496;28;20108;-72
2022/01/01 09:03:47;;;;;;;17.75;6.60;;;13.20;99.90;;;;;;5017540;28;20021;-71
2022/01/01 09:06:12;;;;;;;14.95;5.68;;;13.20;99.90;;;;;;5023511;28;20045;-72
2022/01/01 09:08:40;;;;;;;18.33;6.80;;;13.20;99.90;;;;;;5035540;28;20495;-72
2022/01/01 09:11:07;;;;;;;23.80;8.27;;;13.20;99.90;;;;;;5036028;28;20075;-72
2022/01/01 09:13:33;;;;;;;18.98;7.30;;;13.20;99.90;;;;;;5034219;28;20050;-71
2022/01/01 09:15:59;;;;;;;19.38;8.35;;;13.10;99.90;;;;;;5029957;28;20038;-72
2022/01/01 09:18:25;;;;;;;15.07;7.20;;;13.00;99.90;;;;;;5029664;28;20080;-71
2022/01/01 09:20:51;;;;;;;19.25;7.07;;;13.00;99.90;;;;;;5016296;28;20022;-71
2022/01/01 09:23:19;;;;;;;16.63;7.28;;;12.90;99.90;;;;;;5034129;28;20079;-71
2022/01/01 09:25:45;;;;;;;21.50;7.00;;;12.90;99.90;;;;;;5034978;28;20112;-71
2022/01/01 09:28:11;;;;;;;19.42;8.13;;;12.80;99.90;;;;;;5034511;28;20452;-71
2022/01/01 09:30:36;;;;;;;19.10;7.88;;;12.80;99.90;;;;;;5032864;28;20442;-71
2022/01/01 09:33:03;;;;;;;21.13;7.53;;;12.80;99.90;;;;;;5047665;28;20061;-71
2022/01/01 09:35:29;;;;;;;21.45;7.85;;;12.80;99.90;;;;;;5015665;28;20109;-72
2022/01/01 09:37:54;;;;;;;22.25;7.47;;;12.80;99.90;;;;;;5015778;28;20136;-72
2022/01/01 09:40:20;;;;;;;22.15;8.52;;;12.80;99.90;;;;;;5016585;28;20140;-71
2022/01/01 09:42:46;;;;;;;22.08;7.97;;;12.80;99.90;;;;;;5029190;28;20410;-71
2022/01/01 09:45:12;;;;;;;20.55;7.72;;;12.90;99.90;;;;;;5030880;28;20025;-71
2022/01/01 09:47:38;;;;;;;23.17;9.82;;;12.90;99.90;;;;;;5024476;28;20072;-71
2022/01/01 09:50:10;;;;;;;24.08;9.77;;;13.00;99.90;;;;;;5026098;28;20406;-71
2022/01/01 09:52:45;;;;;;;20.50;8.40;;;13.00;99.90;;;;;;5031710;28;20183;-74
2022/01/01 09:55:11;;;;;;;20.63;8.10;;;13.10;99.90;;;;;;5015460;28;20053;-72
2022/01/01 09:57:39;;;;;;;22.60;8.88;;;13.20;99.90;;;;;;5019474;28;20108;-72
2022/01/01 10:00:13;;;;;;;19.95;7.30;;;13.20;99.90;;;;;;5036700;28;20378;-73
2022/01/01 10:02:39;;;;;;;14.57;6.70;;;13.20;99.90;;;;;;5033552;28;20483;-72
2022/01/01 10:05:06;;;;;;;21.33;9.32;;;13.20;99.90;;;;;;5034002;28;20062;-72
2022/01/01 10:07:31;;;;;;;16.92;7.03;;;13.20;99.90;;;;;;5033847;28;20402;-72
2022/01/01 10:10:15;;;;;;;21.63;7.68;;;13.20;99.90;;;;;;5033605;28;20104;-74
2022/01/01 10:12:43;;;;;;;25.52;9.13;;;13.20;99.90;;;;;;5029619;28;20388;-71
2022/01/01 10:15:11;;;;;;;20.48;9.32;;;13.10;99.90;;;;;;5021521;28;20033;-72
2022/01/01 10:17:37;;;;;;;19.23;9.13;;;13.10;99.90;;;;;;5032995;28;20032;-71
2022/01/01 10:20:04;;;;;;;20.02;8.25;;;13.20;99.90;;;;;;5034150;28;20025;-71
2022/01/01 10:22:30;;;;;;;26.38;10.02;;;13.20;99.90;;;;;;5029207;28;20033;-71
2022/01/01 10:27:58;;;;;;;23.05;10.10;;;13.30;99.90;;;;;;5014996;28;20045;-72
2022/01/01 10:30:35;;;;;;;23.05;8.60;;;13.30;99.90;;;;;;5032431;28;20136;-75
2022/01/01 10:33:15;;;;;;;18.90;8.57;;;13.30;99.90;;;;;;5033915;28;20029;-74
2022/01/01 10:35:46;;;;;;;23.42;9.98;;;13.40;99.90;;;;;;5031946;28;20440;-72
2022/01/01 10:38:26;;;;;;;20.00;8.20;;;13.50;99.90;;;;;;5034007;28;20459;-73
2022/01/01 10:41:03;;;;;;;27.38;10.55;;;13.60;99.90;;;;;;5031999;28;20025;-71
2022/01/01 10:43:37;;;;;;;22.45;9.27;;;13.80;99.90;;;;;;5032068;28;20065;-71
2022/01/01 10:46:04;;;;;;;30.88;11.27;;;14.10;99.90;;;;;;5027918;28;20034;-72
2022/01/01 10:51:01;;;;;;;26.75;10.00;;;14.30;99.90;;;;;;5020244;28;20061;-71
2022/01/01 10:53:28;;;;;;;30.25;12.93;;;14.40;99.90;;;;;;5028911;28;20089;-71
2022/01/01 10:56:03;;;;;;;32.97;13.00;;;14.40;99.90;;;;;;5019781;28;20037;-71
2022/01/01 10:58:32;;;;;;;39.30;16.63;;;14.20;99.90;;;;;;5027231;28;20057;-71
2022/01/01 11:01:20;;;;;;;36.30;16.10;;;14.10;99.90;;;;;;5017940;28;20056;-71
2022/01/01 11:03:51;;;;;;;36.03;14.60;;;14.00;99.90;;;;;;5013633;28;20087;-73
2022/01/01 11:06:18;;;;;;;31.60;14.73;;;14.00;99.90;;;;;;5027994;28;20121;-75
2022/01/01 11:08:46;;;;;;;36.97;17.17;;;14.00;99.90;;;;;;5022961;28;20028;-75
2022/01/01 11:11:14;;;;;;;36.65;16.65;;;14.10;99.90;;;;;;5041746;28;20017;-74
2022/01/01 11:13:41;;;;;;;32.15;15.90;;;14.30;99.90;;;;;;5014522;28;20042;-72
2022/01/01 11:16:08;;;;;;;35.67;17.00;;;14.50;99.90;;;;;;5029163;28;20030;-73
2022/01/01 11:18:34;;;;;;;38.13;17.60;;;14.70;99.90;;;;;;5013248;28;20475;-73
2022/01/01 11:21:05;;;;;;;32.40;14.75;;;14.90;99.90;;;;;;5015274;28;20040;-72
2022/01/01 11:23:32;;;;;;;35.17;16.77;;;15.00;99.90;;;;;;5022931;28;20032;-71
2022/01/01 11:25:58;;;;;;;31.35;16.02;;;15.10;99.90;;;;;;5012836;28;20065;-71
2022/01/01 11:28:25;;;;;;;32.83;16.95;;;15.20;99.90;;;;;;5013430;28;20038;-71
2022/01/01 11:31:14;;;;;;;34.05;14.90;;;15.00;99.90;;;;;;5012962;28;20356;-71
2022/01/01 11:33:42;;;;;;;28.70;13.52;;;14.90;99.90;;;;;;5014590;28;20486;-71
2022/01/01 11:36:19;;;;;;;34.47;14.82;;;14.70;99.90;;;;;;5020504;28;20025;-71
2022/01/01 11:38:45;;;;;;;37.67;17.48;;;14.60;99.90;;;;;;5031173;28;20029;-72
2022/01/01 11:41:12;;;;;;;29.17;13.10;;;14.60;99.90;;;;;;5030426;28;20022;-73
2022/01/01 11:43:53;;;;;;;35.40;18.08;;;14.60;99.90;;;;;;5031319;28;20034;-71
2022/01/01 11:46:29;;;;;;;31.52;14.57;;;14.60;99.90;;;;;;5026255;28;20104;-70
2022/01/01 11:49:00;;;;;;;32.60;15.32;;;14.50;99.90;;;;;;5023060;28;20057;-70
2022/01/01 11:51:35;;;;;;;33.42;15.85;;;14.40;99.90;;;;;;5016281;28;20033;-72
2022/01/01 11:54:34;;;;;;;32.50;14.32;;;14.30;99.90;;;;;;5022343;28;20052;-72
2022/01/01 11:57:05;;;;;;;30.80;15.18;;;14.20;99.90;;;;;;5025494;28;20060;-72
2022/01/01 11:59:36;;;;;;;28.75;14.60;;;14.10;99.90;;;;;;5032294;28;20025;-70
2022/01/01 12:02:11;;;;;;;31.50;15.50;;;14.10;99.90;;;;;;5026652;28;20029;-72
2022/01/01 12:04:40;;;;;;;34.42;16.02;;;14.10;99.90;;;;;;5012921;28;20064;-73
2022/01/01 12:07:24;;;;;;;31.23;14.85;;;14.10;99.90;;;;;;5022128;28;20127;-71
2022/01/01 12:10:11;;;;;;;31.25;13.80;;;14.10;99.90;;;;;;5012231;28;20029;-74
2022/01/01 12:13:01;;;;;;;25.48;12.68;;;14.10;99.90;;;;;;5020587;28;20033;-73
2022/01/01 12:15:38;;;;;;;28.35;11.55;;;14.00;99.90;;;;;;5021250;28;20053;-71
2022/01/01 12:18:17;;;;;;;28.13;11.95;;;14.00;99.90;;;;;;5031364;28;20053;-73
2022/01/01 12:20:50;;;;;;;26.10;12.32;;;14.10;99.90;;;;;;5024506;28;20034;-72
2022/01/01 12:23:37;;;;;;;30.25;13.27;;;14.10;99.90;;;;;;5028158;28;20109;-71
2022/01/01 12:26:08;;;;;;;30.70;14.10;;;14.10;99.90;;;;;;5023401;28;20452;-71
2022/01/01 12:28:36;;;;;;;29.00;13.57;;;14.10;99.90;;;;;;5024223;28;20048;-71
2022/01/01 12:31:13;;;;;;;24.38;11.60;;;14.10;99.90;;;;;;5023742;28;20065;-72
2022/01/01 12:33:42;;;;;;;27.83;12.70;;;14.10;99.90;;;;;;5017407;28;20306;-72
2022/01/01 12:36:14;;;;;;;26.20;13.05;;;14.10;99.90;;;;;;5015082;28;20029;-72
2022/01/01 12:38:47;;;;;;;25.02;10.63;;;14.00;99.90;;;;;;5041028;28;20033;-73
2022/01/01 12:41:29;;;;;;;27.05;12.18;;;14.10;99.90;;;;;;5028365;28;20171;-75
2022/01/01 12:43:57;;;;;;;26.58;11.45;;;14.10;99.90;;;;;;5022688;28;20053;-72